Time;durP1;ratioP1;P1;durP2;ratioP2;P2;SDS_P1;SDS_P2;PMS_P1;PMS_P2;Temp;Humidity;BMP_temperature;BMP_pressure;BME280_temperature;BME280_humidity;BME280_pressure;Samples;Min_cycle;Max_cycle;Signal;HPM_P1;HPM_P2
2021/04/07 00:00:26;;;;;;;19.10;10.00;;;;;;;;;;4415668;32;20329;-63
2021/04/07 00:02:51;;;;;;;17.47;10.30;;;;;;;;;;4394835;32;20557;-62
2021/04/07 00:05:20;;;;;;;20.03;12.10;;;;;;;;;;4403827;32;20225;-58
2021/04/07 00:07:49;;;;;;;18.00;11.13;;;;;;;;;;4410689;32;20712;-64
2021/04/07 00:10:16;;;;;;;25.40;12.57;;;;;;;;;;4414887;32;20213;-61
2021/04/07 00:12:42;;;;;;;26.57;12.93;;;;;;;;;;4408914;32;20284;-60
2021/04/07 00:15:13;;;;;;;24.53;12.87;;;;;;;;;;4403897;32;20359;-60
2021/04/07 00:17:39;;;;;;;20.60;11.77;;;;;;;;;;4416475;32;20232;-60
2021/04/07 00:20:17;;;;;;;20.07;11.10;;;;;;;;;;4427997;32;20201;-60
2021/04/07 00:22:42;;;;;;;18.70;9.87;;;;;;;;;;4408426;32;20231;-65
2021/04/07 00:25:08;;;;;;;15.83;10.03;;;;;;;;;;4403324;32;20566;-61
2021/04/07 00:27:36;;;;;;;20.73;11.67;;;;;;;;;;4408794;32;20291;-60
2021/04/07 00:30:04;;;;;;;19.73;12.60;;;;;;;;;;4404873;32;20300;-60
2021/04/07 00:32:29;;;;;;;19.83;10.67;;;;;;;;;;4394992;32;20217;-63
2021/04/07 00:34:55;;;;;;;15.97;10.50;;;;;;;;;;4402051;32;20317;-65
2021/04/07 00:37:21;;;;;;;20.07;11.27;;;;;;;;;;4244843;32;20532;-62
2021/04/07 00:40:41;;;;;;;18.27;9.60;;;;;;;;;;4042829;32;20542;-62
2021/04/07 00:43:06;;;;;;;9.63;6.53;;;;;;;;;;3702414;34;20291;-62
2021/04/07 00:45:32;;;;;;;11.60;6.30;;;;;;;;;;4065925;33;20730;-61
2021/04/07 00:47:58;;;;;;;7.97;3.90;;;;;;;;;;4231734;33;20304;-63
2021/04/07 00:50:26;;;;;;;9.17;3.77;;;;;;;;;;4255611;33;20330;-62
2021/04/07 00:52:52;;;;;;;8.50;3.63;;;;;;;;;;4261142;33;20232;-63
2021/04/07 00:55:21;;;;;;;9.07;3.97;;;;;;;;;;4264629;33;20347;-63
2021/04/07 00:57:47;;;;;;;6.07;3.73;;;;;;;;;;4266902;33;20270;-63
2021/04/07 01:00:14;;;;;;;10.13;4.40;;;;;;;;;;4252372;33;20304;-62
2021/04/07 01:02:40;;;;;;;10.87;3.63;;;;;;;;;;4267469;33;20706;-61
2021/04/07 01:05:08;;;;;;;18.30;10.80;;;;;;;;;;4265730;33;20604;-61
2021/04/07 01:07:34;;;;;;;24.70;14.50;;;;;;;;;;4248235;33;20224;-61
2021/04/07 01:09:59;;;;;;;15.07;11.40;;;;;;;;;;4266025;33;20319;-60
2021/04/07 01:12:25;;;;;;;13.97;10.50;;;;;;;;;;4259998;33;20789;-60
2021/04/07 01:14:51;;;;;;;16.33;10.33;;;;;;;;;;4253608;33;20785;-60
2021/04/07 01:17:18;;;;;;;13.73;10.07;;;;;;;;;;4258848;33;20299;-60
2021/04/07 01:19:44;;;;;;;23.63;10.40;;;;;;;;;;4266573;33;20319;-60
2021/04/07 01:22:11;;;;;;;18.73;10.33;;;;;;;;;;4259572;33;20275;-60
2021/04/07 01:24:37;;;;;;;14.53;10.00;;;;;;;;;;4266965;33;20279;-59
2021/04/07 01:27:03;;;;;;;17.53;11.40;;;;;;;;;;4258606;33;20221;-60
2021/04/07 01:29:28;;;;;;;14.57;9.57;;;;;;;;;;4267261;33;20513;-60
2021/04/07 01:31:56;;;;;;;18.07;9.50;;;;;;;;;;4258206;33;20308;-61
2021/04/07 01:34:22;;;;;;;24.00;14.93;;;;;;;;;;4267186;33;20221;-59
2021/04/07 01:36:49;;;;;;;18.50;11.00;;;;;;;;;;4258721;33;20232;-60
2021/04/07 01:39:14;;;;;;;18.20;11.23;;;;;;;;;;4266634;33;20291;-59
2021/04/07 01:41:41;;;;;;;20.93;10.63;;;;;;;;;;4259024;33;20276;-59
2021/04/07 01:44:08;;;;;;;20.37;12.83;;;;;;;;;;4266467;33;20304;-60
2021/04/07 01:46:34;;;;;;;20.27;13.80;;;;;;;;;;4259354;33;20213;-60
2021/04/07 01:49:00;;;;;;;16.63;10.13;;;;;;;;;;4265911;33;20236;-58
2021/04/07 01:51:27;;;;;;;14.77;9.63;;;;;;;;;;4253490;33;20221;-58
2021/04/07 01:54:00;;;;;;;12.53;9.47;;;;;;;;;;4255426;33;20222;-58
2021/04/07 01:56:25;;;;;;;20.40;9.20;;;;;;;;;;4250699;33;20239;-59
2021/04/07 01:59:04;;;;;;;18.03;9.50;;;;;;;;;;4256199;33;20241;-60
2021/04/07 02:01:30;;;;;;;19.43;11.23;;;;;;;;;;4254817;33;20304;-60
2021/04/07 02:03:56;;;;;;;20.20;10.87;;;;;;;;;;4242384;33;20605;-62
2021/04/07 02:06:21;;;;;;;17.60;9.63;;;;;;;;;;4246578;33;20224;-62
2021/04/07 02:08:47;;;;;;;10.93;6.93;;;;;;;;;;4254431;33;20244;-63
2021/04/07 02:11:15;;;;;;;10.87;6.37;;;;;;;;;;4252152;33;20229;-63
2021/04/07 02:13:40;;;;;;;13.13;5.90;;;;;;;;;;4254130;33;20308;-59
2021/04/07 02:16:13;;;;;;;5.83;3.57;;;;;;;;;;4252402;33;20631;-59
2021/04/07 02:18:39;;;;;;;9.63;4.27;;;;;;;;;;4253979;33;20221;-58
2021/04/07 02:21:05;;;;;;;11.20;4.77;;;;;;;;;;4252596;33;20396;-59
2021/04/07 02:23:32;;;;;;;10.37;4.10;;;;;;;;;;4239671;33;20355;-60
2021/04/07 02:25:57;;;;;;;5.27;3.73;;;;;;;;;;4253006;33;20288;-58
2021/04/07 02:28:24;;;;;;;4.97;3.43;;;;;;;;;;4239015;33;20311;-59
2021/04/07 02:30:50;;;;;;;6.40;3.50;;;;;;;;;;4253528;33;20265;-59
2021/04/07 02:33:16;;;;;;;9.87;4.40;;;;;;;;;;4248152;33;20295;-61
2021/04/07 02:35:41;;;;;;;7.63;3.10;;;;;;;;;;4250942;33;20563;-61
2021/04/07 02:38:08;;;;;;;5.67;3.57;;;;;;;;;;4256250;33;20371;-62
2021/04/07 02:40:34;;;;;;;12.67;4.10;;;;;;;;;;4254136;33;20232;-62
2021/04/07 02:42:59;;;;;;;6.63;3.70;;;;;;;;;;4237133;33;20741;-62
2021/04/07 02:45:25;;;;;;;12.00;4.50;;;;;;;;;;4254211;33;20631;-63
2021/04/07 02:47:50;;;;;;;11.47;4.60;;;;;;;;;;4249682;33;20799;-63
2021/04/07 02:50:16;;;;;;;10.60;4.33;;;;;;;;;;3867284;33;20289;-61
2021/04/07 02:54:25;;;;;;;4.50;3.00;;;;;;;;;;4075508;32;20423;-64
2021/04/07 02:56:50;;;;;;;12.17;3.70;;;;;;;;;;3643724;34;20364;-64
2021/04/07 02:59:17;;;;;;;10.23;4.03;;;;;;;;;;3997434;33;20324;-63
2021/04/07 03:01:42;;;;;;;5.33;3.67;;;;;;;;;;3755430;34;20390;-64
2021/04/07 03:04:08;;;;;;;4.67;2.93;;;;;;;;;;4137665;33;20381;-64
2021/04/07 03:06:34;;;;;;;6.10;4.60;;;;;;;;;;4249790;33;20205;-60
2021/04/07 03:09:00;;;;;;;8.63;4.80;;;;;;;;;;4266167;33;20324;-59
2021/04/07 03:11:27;;;;;;;12.50;5.30;;;;;;;;;;4260921;33;20535;-60
2021/04/07 03:13:53;;;;;;;12.23;4.80;;;;;;;;;;4265234;33;20729;-59
2021/04/07 03:16:18;;;;;;;10.43;5.57;;;;;;;;;;4262526;33;20315;-59
2021/04/07 03:18:44;;;;;;;11.27;4.87;;;;;;;;;;4277298;33;20291;-59
2021/04/07 03:21:09;;;;;;;7.77;4.07;;;;;;;;;;4266132;33;20299;-64
2021/04/07 03:23:35;;;;;;;16.97;5.33;;;;;;;;;;4263740;33;20670;-61
2021/04/07 03:26:01;;;;;;;9.77;5.60;;;;;;;;;;4249851;33;20229;-62
2021/04/07 03:28:26;;;;;;;8.70;5.33;;;;;;;;;;4257637;33;20252;-62
2021/04/07 03:30:52;;;;;;;8.13;4.57;;;;;;;;;;4255733;33;20259;-61
2021/04/07 03:33:21;;;;;;;14.23;5.17;;;;;;;;;;4258289;33;20304;-62
2021/04/07 03:35:48;;;;;;;9.40;4.87;;;;;;;;;;4255457;33;20217;-62
2021/04/07 03:38:13;;;;;;;16.80;6.37;;;;;;;;;;4258378;33;20604;-61
2021/04/07 03:40:39;;;;;;;14.50;9.20;;;;;;;;;;4255131;33;20213;-61
2021/04/07 03:43:10;;;;;;;15.27;9.33;;;;;;;;;;4259176;33;20229;-60
2021/04/07 03:45:36;;;;;;;22.37;16.77;;;;;;;;;;4254381;33;20217;-60
2021/04/07 03:48:01;;;;;;;25.97;17.43;;;;;;;;;;4258922;33;20661;-61
2021/04/07 03:50:27;;;;;;;23.00;19.53;;;;;;;;;;4254936;33;20649;-64
2021/04/07 03:52:53;;;;;;;27.20;19.77;;;;;;;;;;4258532;33;20702;-65
2021/04/07 03:55:19;;;;;;;26.23;12.00;;;;;;;;;;4254979;33;20743;-61
2021/04/07 03:57:45;;;;;;;14.13;11.07;;;;;;;;;;4254602;33;20563;-62
2021/04/07 04:00:11;;;;;;;10.73;9.17;;;;;;;;;;4264399;33;20236;-62
2021/04/07 04:02:36;;;;;;;18.00;8.17;;;;;;;;;;4266042;33;20255;-62
2021/04/07 04:05:02;;;;;;;21.17;7.17;;;;;;;;;;4259181;33;20359;-60
2021/04/07 04:07:28;;;;;;;11.93;5.17;;;;;;;;;;4250007;33;20347;-61
2021/04/07 04:09:53;;;;;;;16.20;5.30;;;;;;;;;;4256716;33;20336;-61
2021/04/07 04:12:19;;;;;;;9.77;5.03;;;;;;;;;;4249502;33;20315;-61
2021/04/07 04:14:44;;;;;;;10.40;6.27;;;;;;;;;;4256723;33;20829;-60
2021/04/07 04:17:10;;;;;;;7.30;4.63;;;;;;;;;;4249898;33;20288;-61
2021/04/07 04:19:35;;;;;;;10.97;5.93;;;;;;;;;;4270148;33;20384;-60
2021/04/07 04:22:01;;;;;;;16.37;8.00;;;;;;;;;;4248353;33;20718;-60
2021/04/07 04:24:27;;;;;;;18.50;9.43;;;;;;;;;;4257215;33;20310;-62
2021/04/07 04:26:53;;;;;;;14.47;7.03;;;;;;;;;;4248476;33;20237;-61
2021/04/07 04:29:18;;;;;;;17.20;7.70;;;;;;;;;;4256748;33;20745;-62
2021/04/07 04:31:44;;;;;;;16.37;6.10;;;;;;;;;;4248260;33;20216;-62
2021/04/07 04:34:09;;;;;;;14.50;6.70;;;;;;;;;;4257133;33;20213;-62
2021/04/07 04:36:35;;;;;;;9.93;6.70;;;;;;;;;;4249286;33;20280;-62
2021/04/07 04:39:00;;;;;;;20.10;9.33;;;;;;;;;;4256102;33;20342;-62
2021/04/07 04:41:26;;;;;;;15.00;8.90;;;;;;;;;;4250446;33;20301;-63
2021/04/07 04:43:51;;;;;;;17.83;11.73;;;;;;;;;;4254514;33;20302;-62
2021/04/07 04:46:17;;;;;;;12.23;8.47;;;;;;;;;;4259601;33;20284;-63
2021/04/07 04:48:42;;;;;;;10.27;7.30;;;;;;;;;;4245573;33;20590;-64
2021/04/07 04:51:07;;;;;;;9.47;6.10;;;;;;;;;;4237781;33;20323;-61
2021/04/07 04:53:33;;;;;;;15.30;6.97;;;;;;;;;;4256681;33;20620;-61
2021/04/07 04:55:59;;;;;;;9.40;6.73;;;;;;;;;;4252098;33;20344;-62
2021/04/07 04:58:25;;;;;;;9.60;6.13;;;;;;;;;;4257412;33;20247;-61
2021/04/07 05:00:50;;;;;;;7.60;5.70;;;;;;;;;;4254905;33;20643;-62
2021/04/07 05:03:15;;;;;;;9.10;6.13;;;;;;;;;;4256856;33;20344;-62
2021/04/07 05:05:41;;;;;;;8.83;4.80;;;;;;;;;;4253890;33;20607;-62
2021/04/07 05:08:06;;;;;;;6.73;4.17;;;;;;;;;;4249696;33;20585;-64
2021/04/07 05:10:32;;;;;;;10.10;6.83;;;;;;;;;;4253228;33;20228;-59
2021/04/07 05:12:57;;;;;;;11.27;6.53;;;;;;;;;;4256176;33;20328;-59
2021/04/07 05:15:23;;;;;;;14.77;10.10;;;;;;;;;;4253779;33;20277;-60
2021/04/07 05:17:49;;;;;;;18.27;12.47;;;;;;;;;;4254261;33;20657;-63
2021/04/07 05:20:16;;;;;;;10.03;7.40;;;;;;;;;;4264055;33;20280;-60
2021/04/07 05:22:43;;;;;;;5.90;5.27;;;;;;;;;;4249918;33;20700;-62
2021/04/07 05:25:09;;;;;;;9.20;5.47;;;;;;;;;;4254227;33;20548;-61
2021/04/07 05:27:34;;;;;;;14.17;7.53;;;;;;;;;;4246398;33;20868;-61
2021/04/07 05:29:59;;;;;;;13.00;9.80;;;;;;;;;;4229545;33;20374;-61
2021/04/07 05:32:25;;;;;;;12.73;9.40;;;;;;;;;;4256223;33;20304;-64
2021/04/07 05:34:50;;;;;;;15.83;10.50;;;;;;;;;;4259686;33;20714;-62
2021/04/07 05:37:16;;;;;;;9.87;8.00;;;;;;;;;;4262519;33;20474;-63
2021/04/07 05:39:41;;;;;;;13.43;7.97;;;;;;;;;;4268989;33;20587;-63
2021/04/07 05:42:07;;;;;;;16.20;9.83;;;;;;;;;;4256080;33;20706;-63
2021/04/07 05:44:32;;;;;;;15.80;8.63;;;;;;;;;;4240671;33;20422;-61
2021/04/07 05:46:58;;;;;;;8.27;4.23;;;;;;;;;;4250763;33;20513;-62
2021/04/07 05:49:27;;;;;;;8.77;6.13;;;;;;;;;;4254121;33;20721;-62
2021/04/07 05:51:52;;;;;;;14.17;8.80;;;;;;;;;;4248950;33;20718;-62
2021/04/07 05:54:19;;;;;;;17.47;12.30;;;;;;;;;;4238565;33;20374;-62
2021/04/07 05:56:44;;;;;;;13.47;9.93;;;;;;;;;;4247594;33;20279;-62
2021/04/07 05:59:09;;;;;;;11.70;6.27;;;;;;;;;;4254302;33;20603;-61
2021/04/07 06:01:35;;;;;;;9.60;5.37;;;;;;;;;;4259156;33;20240;-61
2021/04/07 06:20:28;;;;;;;8.70;4.07;;;;;;;;;;4474097;32;20776;-61
2021/04/07 06:22:54;;;;;;;9.37;6.13;;;;;;;;;;4446454;32;20286;-60
2021/04/07 06:25:19;;;;;;;9.20;6.70;;;;;;;;;;4460603;32;20279;-61
2021/04/07 06:27:49;;;;;;;3.63;3.00;;;;;;;;;;4450788;32;20297;-62
2021/04/07 06:30:15;;;;;;;12.03;6.80;;;;;;;;;;4461878;32;20275;-61
2021/04/07 06:32:41;;;;;;;7.63;5.40;;;;;;;;;;4461090;32;20275;-58
2021/04/07 06:35:06;;;;;;;6.30;4.90;;;;;;;;;;4460642;32;20283;-58
2021/04/07 06:37:32;;;;;;;10.70;8.23;;;;;;;;;;4455081;32;20388;-59
2021/04/07 06:39:57;;;;;;;8.20;5.47;;;;;;;;;;4450068;32;20295;-59
2021/04/07 06:42:23;;;;;;;4.13;3.00;;;;;;;;;;4460741;32;20323;-59
2021/04/07 06:44:48;;;;;;;4.40;3.53;;;;;;;;;;4461588;32;20294;-60
2021/04/07 06:47:15;;;;;;;7.13;4.00;;;;;;;;;;4461271;32;20225;-59
2021/04/07 06:49:42;;;;;;;2.50;2.30;;;;;;;;;;4446619;32;20391;-59
2021/04/07 06:52:15;;;;;;;3.53;3.17;;;;;;;;;;4450941;32;20233;-59
2021/04/07 06:54:42;;;;;;;6.53;3.77;;;;;;;;;;4447965;32;20212;-59
2021/04/07 06:57:08;;;;;;;3.70;3.27;;;;;;;;;;4453124;32;20273;-59
2021/04/07 06:59:36;;;;;;;9.43;6.30;;;;;;;;;;4458625;32;20244;-59
2021/04/07 07:02:03;;;;;;;5.60;3.80;;;;;;;;;;4452038;32;20265;-57
2021/04/07 07:04:28;;;;;;;10.60;4.77;;;;;;;;;;4458448;32;20208;-57
2021/04/07 07:06:54;;;;;;;14.43;7.33;;;;;;;;;;4456020;32;20631;-58
2021/04/07 07:09:20;;;;;;;6.83;4.20;;;;;;;;;;4458371;32;20248;-58
2021/04/07 07:11:47;;;;;;;8.90;6.63;;;;;;;;;;4455700;32;20250;-58
2021/04/07 07:14:14;;;;;;;17.03;9.13;;;;;;;;;;4458382;32;20821;-57
2021/04/07 07:16:44;;;;;;;10.87;6.03;;;;;;;;;;4453791;32;20610;-57
2021/04/07 07:19:20;;;;;;;12.30;8.17;;;;;;;;;;4445668;32;20308;-59
2021/04/07 07:21:53;;;;;;;16.30;13.47;;;;;;;;;;4442886;32;20217;-57
2021/04/07 07:24:55;;;;;;;9.83;7.07;;;;;;;;;;4443905;32;20228;-57
2021/04/07 07:27:33;;;;;;;9.10;4.67;;;;;;;;;;4425219;32;20698;-57
2021/04/07 07:30:00;;;;;;;9.07;4.43;;;;;;;;;;4441996;32;20212;-58
2021/04/07 07:32:39;;;;;;;12.10;8.10;;;;;;;;;;4441041;32;20247;-58
2021/04/07 07:35:15;;;;;;;11.37;7.83;;;;;;;;;;4446665;32;20252;-56
2021/04/07 07:37:43;;;;;;;12.17;7.00;;;;;;;;;;4439639;32;20637;-57
2021/04/07 07:40:15;;;;;;;12.20;8.53;;;;;;;;;;4439851;32;20290;-57
2021/04/07 07:42:41;;;;;;;10.27;7.53;;;;;;;;;;4446183;32;20240;-57
2021/04/07 07:45:07;;;;;;;14.37;10.07;;;;;;;;;;4442444;32;20393;-58
2021/04/07 07:47:38;;;;;;;13.40;7.90;;;;;;;;;;4433197;32;20224;-57
2021/04/07 07:50:07;;;;;;;17.07;9.97;;;;;;;;;;4442662;32;20693;-57
2021/04/07 07:52:38;;;;;;;14.67;8.93;;;;;;;;;;4440412;32;20314;-57
2021/04/07 07:55:18;;;;;;;17.00;10.57;;;;;;;;;;4446703;32;20763;-57
2021/04/07 07:57:57;;;;;;;10.13;5.50;;;;;;;;;;4447735;32;20762;-57
2021/04/07 08:00:24;;;;;;;8.70;6.50;;;;;;;;;;4444226;32;20602;-58
2021/04/07 08:02:53;;;;;;;19.23;9.57;;;;;;;;;;4435889;32;20323;-57
2021/04/07 08:05:23;;;;;;;10.67;7.00;;;;;;;;;;4446837;32;20619;-57
2021/04/07 08:07:50;;;;;;;9.37;6.13;;;;;;;;;;4448744;32;20400;-57
2021/04/07 08:10:15;;;;;;;10.23;6.60;;;;;;;;;;4444942;32;20256;-56
2021/04/07 08:12:42;;;;;;;10.10;6.07;;;;;;;;;;4447961;32;20339;-56
2021/04/07 08:15:11;;;;;;;9.77;5.90;;;;;;;;;;4445681;32;20569;-57
2021/04/07 08:17:37;;;;;;;9.57;7.67;;;;;;;;;;4437669;32;20245;-57
2021/04/07 08:20:05;;;;;;;11.17;6.27;;;;;;;;;;4442356;32;20287;-58
2021/04/07 08:22:33;;;;;;;11.97;7.23;;;;;;;;;;4448780;32;20284;-57
2021/04/07 08:25:04;;;;;;;10.03;4.30;;;;;;;;;;4443199;32;20208;-57
2021/04/07 08:27:32;;;;;;;4.80;3.83;;;;;;;;;;4442156;32;20698;-55
2021/04/07 08:29:58;;;;;;;7.77;5.80;;;;;;;;;;4445337;32;20241;-56
2021/04/07 08:32:24;;;;;;;11.27;7.00;;;;;;;;;;4448018;32;20348;-54
2021/04/07 08:34:50;;;;;;;13.00;7.93;;;;;;;;;;4447103;32;20333;-56
2021/04/07 08:37:26;;;;;;;17.07;11.00;;;;;;;;;;4447710;32;20482;-55
2021/04/07 08:39:52;;;;;;;12.50;7.43;;;;;;;;;;4436306;32;20232;-55
2021/04/07 08:42:17;;;;;;;16.40;10.70;;;;;;;;;;4446641;32;20247;-56
2021/04/07 08:44:49;;;;;;;13.33;9.40;;;;;;;;;;4441876;32;20330;-57
2021/04/07 08:48:02;;;;;;;11.83;8.83;;;;;;;;;;4446939;32;20592;-56
2021/04/07 08:50:15;;;;;;;18.27;12.40;;;;;;;;;;4441983;32;20425;-55
2021/04/07 08:52:48;;;;;;;22.17;13.90;;;;;;;;;;4447285;32;20646;-55
2021/04/07 08:55:17;;;;;;;24.40;15.00;;;;;;;;;;4443330;32;20350;-55
2021/04/07 08:57:43;;;;;;;21.30;14.10;;;;;;;;;;4442955;32;20255;-56
2021/04/07 09:00:16;;;;;;;16.27;10.63;;;;;;;;;;4441266;32;20650;-56
2021/04/07 09:02:54;;;;;;;18.07;14.33;;;;;;;;;;4448199;32;20503;-57
2021/04/07 09:05:29;;;;;;;20.83;15.50;;;;;;;;;;4447216;32;20238;-55
2021/04/07 09:07:57;;;;;;;20.90;15.63;;;;;;;;;;4446525;32;20232;-56
2021/04/07 09:10:23;;;;;;;13.17;10.17;;;;;;;;;;4444913;32;20224;-55
2021/04/07 09:12:50;;;;;;;5.30;3.70;;;;;;;;;;4447462;32;20212;-55
2021/04/07 09:15:25;;;;;;;4.97;3.97;;;;;;;;;;4443005;32;20248;-55
2021/04/07 09:17:57;;;;;;;9.90;7.23;;;;;;;;;;4446433;32;20340;-55
2021/04/07 09:20:41;;;;;;;12.20;9.23;;;;;;;;;;4442665;32;20253;-55
2021/04/07 09:23:16;;;;;;;19.47;12.67;;;;;;;;;;4447613;32;20240;-55
2021/04/07 09:25:48;;;;;;;13.03;9.37;;;;;;;;;;4447809;32;20260;-55
2021/04/07 09:28:14;;;;;;;26.43;18.20;;;;;;;;;;4444435;32;20450;-55
2021/04/07 09:30:42;;;;;;;11.80;8.90;;;;;;;;;;4443995;32;20679;-55
2021/04/07 09:33:08;;;;;;;14.37;10.80;;;;;;;;;;4447395;32;20984;-55
2021/04/07 09:35:34;;;;;;;17.17;11.57;;;;;;;;;;4440935;32;20295;-55
2021/04/07 09:38:00;;;;;;;12.23;8.77;;;;;;;;;;4441033;32;21998;-57
2021/04/07 09:40:25;;;;;;;13.70;8.77;;;;;;;;;;4437538;32;20546;-58
2021/04/07 09:42:53;;;;;;;16.73;12.47;;;;;;;;;;4439510;32;20236;-55
2021/04/07 09:45:26;;;;;;;30.03;19.03;;;;;;;;;;4428379;32;20344;-56
2021/04/07 09:47:56;;;;;;;10.33;8.50;;;;;;;;;;4439073;32;20353;-55
2021/04/07 09:50:28;;;;;;;188.40;93.27;;;;;;;;;;4439788;32;20212;-55
2021/04/07 09:52:53;;;;;;;16.07;10.77;;;;;;;;;;4440029;32;20307;-55
2021/04/07 09:55:23;;;;;;;26.23;16.97;;;;;;;;;;4433737;32;20684;-56
2021/04/07 09:58:00;;;;;;;18.13;11.17;;;;;;;;;;4442344;32;20772;-56
2021/04/07 10:00:33;;;;;;;809.37;499.40;;;;;;;;;;4440763;32;20253;-55
2021/04/07 10:03:02;;;;;;;58.53;38.23;;;;;;;;;;4438390;32;20287;-55
2021/04/07 10:05:30;;;;;;;23.77;15.07;;;;;;;;;;4444418;32;20223;-55
2021/04/07 10:08:12;;;;;;;34.77;17.90;;;;;;;;;;4443907;32;20306;-55
2021/04/07 10:10:38;;;;;;;258.43;97.63;;;;;;;;;;4440813;32;20326;-56
2021/04/07 10:13:03;;;;;;;40.43;23.63;;;;;;;;;;4442367;32;20806;-55
2021/04/07 10:15:29;;;;;;;17.57;11.87;;;;;;;;;;4438483;32;20298;-56
2021/04/07 10:17:55;;;;;;;20.13;12.50;;;;;;;;;;4221527;32;20243;-55
2021/04/07 10:20:27;;;;;;;19.83;12.73;;;;;;;;;;3590760;34;20683;-56
2021/04/07 10:22:55;;;;;;;28.13;15.97;;;;;;;;;;4135864;33;20700;-55
2021/04/07 10:25:23;;;;;;;17.90;11.50;;;;;;;;;;4283069;33;20298;-55
2021/04/07 10:27:49;;;;;;;18.40;11.20;;;;;;;;;;4317684;33;20218;-56
2021/04/07 10:30:20;;;;;;;12.10;8.60;;;;;;;;;;4325183;33;20547;-57
2021/04/07 10:32:50;;;;;;;13.80;10.70;;;;;;;;;;4315021;33;20235;-54
2021/04/07 10:35:27;;;;;;;16.50;9.07;;;;;;;;;;4320969;33;20744;-53
2021/04/07 10:38:07;;;;;;;121.23;48.37;;;;;;;;;;4322261;33;20698;-54
2021/04/07 10:40:45;;;;;;;13.70;9.63;;;;;;;;;;4323152;33;20239;-55
2021/04/07 10:43:15;;;;;;;36.40;15.33;;;;;;;;;;4318417;33;20223;-55
2021/04/07 10:45:43;;;;;;;22.07;12.00;;;;;;;;;;4320526;33;20241;-55
2021/04/07 10:48:09;;;;;;;58.63;23.30;;;;;;;;;;4317149;33;20242;-56
2021/04/07 10:50:39;;;;;;;34.13;17.97;;;;;;;;;;4323863;33;20650;-56
2021/04/07 10:53:06;;;;;;;10.97;8.10;;;;;;;;;;4322772;33;20289;-55
2021/04/07 10:55:33;;;;;;;10.43;7.60;;;;;;;;;;4327549;33;20253;-55
2021/04/07 10:58:00;;;;;;;71.03;38.73;;;;;;;;;;4325471;33;20239;-55
2021/04/07 11:00:41;;;;;;;28.57;19.30;;;;;;;;;;4315457;33;20230;-56
2021/04/07 11:03:07;;;;;;;18.53;13.60;;;;;;;;;;4322174;33;20393;-53
2021/04/07 11:05:40;;;;;;;16.00;10.53;;;;;;;;;;4328098;33;20326;-56
2021/04/07 11:08:07;;;;;;;39.83;23.90;;;;;;;;;;4325868;33;20396;-55
2021/04/07 11:10:41;;;;;;;9.27;7.57;;;;;;;;;;4320829;33;20723;-55
2021/04/07 11:13:08;;;;;;;7.50;6.10;;;;;;;;;;4326721;33;20306;-55
2021/04/07 11:15:34;;;;;;;6.90;4.90;;;;;;;;;;4325903;33;20310;-55
2021/04/07 11:18:00;;;;;;;5.50;4.97;;;;;;;;;;4321149;33;20243;-54
2021/04/07 11:20:27;;;;;;;24.83;17.77;;;;;;;;;;4339286;33;20309;-58
2021/04/07 11:22:52;;;;;;;9.67;7.07;;;;;;;;;;4320176;33;20413;-58
2021/04/07 11:25:20;;;;;;;19.27;14.10;;;;;;;;;;4325723;33;20418;-56
2021/04/07 11:27:46;;;;;;;6.40;4.73;;;;;;;;;;4325745;33;20231;-55
2021/04/07 11:30:12;;;;;;;17.17;9.47;;;;;;;;;;4320019;33;20309;-55
2021/04/07 11:32:42;;;;;;;6.73;6.03;;;;;;;;;;4316348;33;20261;-56
2021/04/07 11:35:28;;;;;;;7.23;4.97;;;;;;;;;;4326485;33;20251;-55
2021/04/07 11:37:56;;;;;;;7.97;4.47;;;;;;;;;;4325215;33;20310;-55
2021/04/07 11:41:01;;;;;;;5.67;5.13;;;;;;;;;;4319742;33;20228;-58
2021/04/07 11:43:22;;;;;;;7.33;5.73;;;;;;;;;;4312528;33;20782;-56
2021/04/07 11:45:49;;;;;;;6.70;4.27;;;;;;;;;;4315145;33;20576;-56
2021/04/07 11:48:14;;;;;;;7.50;5.90;;;;;;;;;;4322927;33;20285;-56
2021/04/07 11:50:40;;;;;;;18.20;8.10;;;;;;;;;;4317378;33;20671;-57
2021/04/07 11:53:05;;;;;;;9.47;4.87;;;;;;;;;;4326156;33;20334;-56
2021/04/07 11:55:31;;;;;;;6.77;5.60;;;;;;;;;;4318866;33;20307;-57
2021/04/07 11:57:56;;;;;;;7.80;6.53;;;;;;;;;;4327536;33;20310;-57
2021/04/07 12:00:23;;;;;;;7.20;5.47;;;;;;;;;;4319551;33;20231;-56
2021/04/07 12:02:49;;;;;;;7.97;6.10;;;;;;;;;;4328437;33;20250;-57
2021/04/07 12:05:18;;;;;;;8.17;6.00;;;;;;;;;;4318428;33;20346;-57
2021/04/07 12:07:43;;;;;;;9.80;5.93;;;;;;;;;;4328631;33;20354;-56
2021/04/07 12:10:09;;;;;;;10.37;6.80;;;;;;;;;;4320015;33;20388;-57
2021/04/07 12:12:35;;;;;;;9.60;6.83;;;;;;;;;;4326976;33;20313;-57
2021/04/07 12:15:00;;;;;;;11.77;7.87;;;;;;;;;;4327603;33;20283;-58
2021/04/07 12:17:27;;;;;;;15.07;8.90;;;;;;;;;;4317324;33;20818;-56
2021/04/07 12:19:52;;;;;;;14.70;8.87;;;;;;;;;;4320618;33;20312;-58
2021/04/07 12:22:18;;;;;;;11.53;7.53;;;;;;;;;;4319027;33;20563;-55
2021/04/07 12:24:43;;;;;;;16.07;6.67;;;;;;;;;;4335001;33;20693;-56
2021/04/07 12:27:09;;;;;;;7.07;5.43;;;;;;;;;;4333493;33;20234;-57
2021/04/07 12:29:35;;;;;;;10.03;6.73;;;;;;;;;;4327861;33;20298;-56
2021/04/07 12:32:00;;;;;;;9.73;6.90;;;;;;;;;;4320817;33;20270;-56
2021/04/07 12:34:26;;;;;;;9.00;6.63;;;;;;;;;;4323659;33;20242;-57
2021/04/07 12:36:52;;;;;;;17.07;13.37;;;;;;;;;;4326619;33;20324;-58
2021/04/07 12:39:18;;;;;;;11.87;8.67;;;;;;;;;;4324284;33;20393;-56
2021/04/07 12:44:12;;;;;;;16.20;10.97;;;;;;;;;;4325819;33;20635;-56
2021/04/07 12:46:37;;;;;;;13.73;9.07;;;;;;;;;;4326807;33;20245;-55
2021/04/07 12:49:04;;;;;;;33.97;22.50;;;;;;;;;;4335808;33;20447;-56
2021/04/07 12:51:29;;;;;;;15.87;11.40;;;;;;;;;;4321933;33;20253;-56
2021/04/07 12:53:56;;;;;;;52.27;31.77;;;;;;;;;;4318997;33;20219;-56
2021/04/07 12:56:22;;;;;;;75.30;50.73;;;;;;;;;;4326795;33;20276;-56
2021/04/07 12:58:49;;;;;;;21.47;16.57;;;;;;;;;;4317564;33;20223;-56
2021/04/07 13:01:15;;;;;;;14.83;10.27;;;;;;;;;;4326651;33;20598;-56
2021/04/07 13:03:41;;;;;;;10.70;8.40;;;;;;;;;;4327459;33;20211;-56
2021/04/07 13:06:07;;;;;;;15.90;10.93;;;;;;;;;;4317857;33;20247;-56
2021/04/07 13:08:33;;;;;;;19.73;12.40;;;;;;;;;;4319505;33;20311;-56
2021/04/07 13:10:58;;;;;;;16.47;11.40;;;;;;;;;;4326992;33;20302;-57
2021/04/07 13:13:24;;;;;;;10.27;7.70;;;;;;;;;;4323460;33;20247;-55
2021/04/07 13:15:50;;;;;;;14.93;8.70;;;;;;;;;;4333061;33;20624;-56
2021/04/07 13:18:17;;;;;;;13.90;8.20;;;;;;;;;;4323420;33;20235;-56
2021/04/07 13:20:43;;;;;;;16.23;9.30;;;;;;;;;;4338602;33;20307;-56
2021/04/07 13:23:09;;;;;;;19.83;13.17;;;;;;;;;;4327048;33;20258;-56
2021/04/07 13:25:35;;;;;;;17.40;10.80;;;;;;;;;;4327036;33;20277;-56
2021/04/07 13:28:00;;;;;;;19.10;12.80;;;;;;;;;;4325660;33;20254;-56
2021/04/07 13:30:32;;;;;;;13.10;9.20;;;;;;;;;;4312736;33;20779;-56
2021/04/07 13:33:12;;;;;;;10.60;8.47;;;;;;;;;;4322268;33;20326;-57
2021/04/07 13:41:04;;;;;;;7.43;5.17;;;;;;;;;;4311870;33;20604;-57
2021/04/07 13:43:29;;;;;;;8.73;6.43;;;;;;;;;;4321586;33;20877;-56
2021/04/07 13:45:55;;;;;;;6.50;5.20;;;;;;;;;;4312652;33;20329;-57
2021/04/07 13:48:24;;;;;;;6.13;5.23;;;;;;;;;;4321963;33;20358;-57
2021/04/07 13:50:50;;;;;;;9.93;7.20;;;;;;;;;;4313713;33;20683;-56
2021/04/07 13:53:16;;;;;;;8.40;6.80;;;;;;;;;;4324867;33;20247;-57
2021/04/07 13:55:44;;;;;;;11.67;7.80;;;;;;;;;;4325560;33;20273;-57
2021/04/07 13:58:09;;;;;;;14.57;8.53;;;;;;;;;;4325090;33;20301;-56
2021/04/07 14:00:35;;;;;;;10.77;8.00;;;;;;;;;;4325098;33;20282;-56
2021/04/07 14:03:01;;;;;;;9.27;8.03;;;;;;;;;;4323762;33;20656;-56
2021/04/07 14:05:28;;;;;;;7.97;7.17;;;;;;;;;;4325109;33;20234;-56
2021/04/07 14:07:55;;;;;;;107.93;56.50;;;;;;;;;;4325305;33;20348;-56
2021/04/07 14:10:21;;;;;;;11.97;9.10;;;;;;;;;;4313517;33;20258;-57
2021/04/07 14:12:59;;;;;;;10.80;8.50;;;;;;;;;;4311011;33;20314;-58
2021/04/07 14:15:25;;;;;;;12.57;9.40;;;;;;;;;;4319464;33;20222;-57
2021/04/07 14:17:51;;;;;;;22.47;15.90;;;;;;;;;;4325960;33;20330;-55
2021/04/07 14:20:18;;;;;;;21.80;15.97;;;;;;;;;;4324062;33;20308;-56
2021/04/07 14:22:43;;;;;;;59.50;29.37;;;;;;;;;;4321870;33;20299;-56
2021/04/07 14:25:11;;;;;;;25.10;14.77;;;;;;;;;;4321619;33;20344;-57
2021/04/07 14:27:41;;;;;;;167.33;75.83;;;;;;;;;;4319657;33;20694;-56
2021/04/07 14:30:09;;;;;;;664.00;380.77;;;;;;;;;;4322318;33;20203;-56
2021/04/07 14:32:34;;;;;;;40.90;26.70;;;;;;;;;;4330215;33;20227;-56
2021/04/07 14:35:00;;;;;;;17.03;13.23;;;;;;;;;;4316802;33;20282;-57
2021/04/07 14:37:25;;;;;;;110.50;49.07;;;;;;;;;;4315574;33;20239;-56
2021/04/07 14:39:52;;;;;;;32.40;18.20;;;;;;;;;;4315267;33;20325;-57
2021/04/07 14:42:17;;;;;;;35.60;19.27;;;;;;;;;;4335945;33;20239;-56
2021/04/07 14:44:43;;;;;;;16.20;12.30;;;;;;;;;;4336385;33;20309;-56
2021/04/07 14:47:09;;;;;;;21.33;12.17;;;;;;;;;;4329766;33;20234;-57
2021/04/07 14:49:35;;;;;;;12.80;10.10;;;;;;;;;;4318796;33;20274;-56
2021/04/07 14:52:04;;;;;;;11.87;9.80;;;;;;;;;;4325768;33;20306;-56
2021/04/07 14:54:45;;;;;;;13.07;9.30;;;;;;;;;;4326935;33;20345;-57
2021/04/07 14:57:11;;;;;;;15.80;9.93;;;;;;;;;;4318626;33;20357;-57